Startpagina
METAR-TAF:

METAR-TAF

Vliegvelden :

Diest, België

Schaffen

breedte: 51-00N, lengte: 005-04E, hoogte: 30 m

Actueel weer

Dit bericht is 21 minuten geleden gemaakt, om 18:55 UTC
Wind 8 kt uit het westzuidwesten
Temperatuur 14°C
Vochtigheid 58%
Druk 1017 hPa
Zicht 10 km of meer
Gebroken wolken op 24000 ft

METAR: EBDT 231855Z 25008KT 9999 BKN240 14/06 Q1017 BLU BLU

Tijdstip: 21:16 (19:16 UTC)

Verwachting

Dit bericht is 3 uur en het 35 minuten geleden gemaakt, om 15:41 UTC
Verwachting geldig van 23 om 19 UTC tot 24 om 07 UTC
Wind 8 kt uit het westzuidwesten
Zicht 10 km of meer
Verspreide wolken op 3000 ft
Verspreide wolken op 20000 ft

TAF: EBDT 231541Z 2319/2407 25008KT 9999 SCT030 SCT200

Waarnemingen en weersverwachtingen van meer dan 4000 vliegvelden (METAR en TAF).

De beschikbare stations zijn de gele en rode punten op de kaart.

Ga met uw muis naar het station om de naam te zien.

Klik dan om waarnemingen en weersverwachtingen te zien.

kaart wijzigen: klik op de groene knoppen met een zwart kruis om in te zoomen, op de groene knop met een streepje om uit te zoomen of op de groene pijlen voor aangrenzende kaarten.


METAR-TAF: